sensor_id;sensor_type;location;lat;lon;timestamp;P1;durP1;ratioP1;P2;durP2;ratioP2
69900;SDS011;57183;50.930;5.406;2022-08-19T00:01:45;19.42;;;17.52;;
69900;SDS011;57183;50.930;5.406;2022-08-19T00:04:13;18.55;;;17.00;;
69900;SDS011;57183;50.930;5.406;2022-08-19T00:06:40;17.27;;;15.68;;
69900;SDS011;57183;50.930;5.406;2022-08-19T00:09:09;18.05;;;16.40;;
69900;SDS011;57183;50.930;5.406;2022-08-19T00:11:38;17.25;;;15.65;;
69900;SDS011;57183;50.930;5.406;2022-08-19T00:14:04;17.52;;;15.95;;
69900;SDS011;57183;50.930;5.406;2022-08-19T00:16:32;19.60;;;17.67;;
69900;SDS011;57183;50.930;5.406;2022-08-19T00:18:58;19.13;;;17.63;;
69900;SDS011;57183;50.930;5.406;2022-08-19T00:21:24;17.08;;;15.75;;
69900;SDS011;57183;50.930;5.406;2022-08-19T00:23:52;17.75;;;16.17;;
69900;SDS011;57183;50.930;5.406;2022-08-19T00:26:18;20.33;;;17.10;;
69900;SDS011;57183;50.930;5.406;2022-08-19T00:28:44;18.60;;;16.88;;
69900;SDS011;57183;50.930;5.406;2022-08-19T00:31:12;19.58;;;17.98;;
69900;SDS011;57183;50.930;5.406;2022-08-19T00:33:37;19.58;;;17.65;;
69900;SDS011;57183;50.930;5.406;2022-08-19T00:36:06;19.02;;;17.30;;
69900;SDS011;57183;50.930;5.406;2022-08-19T00:38:34;19.02;;;17.40;;
69900;SDS011;57183;50.930;5.406;2022-08-19T00:41:02;18.75;;;17.23;;
69900;SDS011;57183;50.930;5.406;2022-08-19T00:43:28;20.77;;;18.88;;
69900;SDS011;57183;50.930;5.406;2022-08-19T00:45:54;18.83;;;17.33;;
69900;SDS011;57183;50.930;5.406;2022-08-19T00:48:20;17.20;;;15.55;;
69900;SDS011;57183;50.930;5.406;2022-08-19T00:50:48;23.88;;;21.60;;
69900;SDS011;57183;50.930;5.406;2022-08-19T00:53:18;19.42;;;17.75;;
69900;SDS011;57183;50.930;5.406;2022-08-19T00:55:48;21.50;;;19.45;;
69900;SDS011;57183;50.930;5.406;2022-08-19T00:58:19;23.35;;;21.25;;
69900;SDS011;57183;50.930;5.406;2022-08-19T01:00:46;26.77;;;24.02;;
69900;SDS011;57183;50.930;5.406;2022-08-19T01:03:15;30.38;;;27.48;;
69900;SDS011;57183;50.930;5.406;2022-08-19T01:05:43;19.58;;;17.98;;
69900;SDS011;57183;50.930;5.406;2022-08-19T01:08:10;20.30;;;18.40;;
69900;SDS011;57183;50.930;5.406;2022-08-19T01:10:43;21.00;;;19.10;;
69900;SDS011;57183;50.930;5.406;2022-08-19T01:13:14;23.05;;;20.95;;
69900;SDS011;57183;50.930;5.406;2022-08-19T01:15:56;23.55;;;21.38;;
69900;SDS011;57183;50.930;5.406;2022-08-19T01:18:28;27.15;;;24.38;;
69900;SDS011;57183;50.930;5.406;2022-08-19T01:20:56;26.55;;;24.25;;
69900;SDS011;57183;50.930;5.406;2022-08-19T01:23:26;25.25;;;22.75;;
69900;SDS011;57183;50.930;5.406;2022-08-19T01:26:07;25.52;;;23.13;;
69900;SDS011;57183;50.930;5.406;2022-08-19T01:28:38;25.90;;;23.42;;
69900;SDS011;57183;50.930;5.406;2022-08-19T01:31:05;25.13;;;22.65;;
69900;SDS011;57183;50.930;5.406;2022-08-19T01:33:32;24.77;;;22.15;;
69900;SDS011;57183;50.930;5.406;2022-08-19T01:39:21;25.05;;;22.73;;
69900;SDS011;57183;50.930;5.406;2022-08-19T01:41:49;23.00;;;20.90;;
69900;SDS011;57183;50.930;5.406;2022-08-19T01:44:16;25.02;;;22.65;;
69900;SDS011;57183;50.930;5.406;2022-08-19T01:46:42;24.75;;;22.45;;
69900;SDS011;57183;50.930;5.406;2022-08-19T01:49:09;26.05;;;23.50;;
69900;SDS011;57183;50.930;5.406;2022-08-19T01:51:35;28.50;;;25.70;;
69900;SDS011;57183;50.930;5.406;2022-08-19T01:54:02;29.55;;;25.10;;
69900;SDS011;57183;50.930;5.406;2022-08-19T01:56:28;27.40;;;24.67;;
69900;SDS011;57183;50.930;5.406;2022-08-19T02:05:24;37.63;;;29.85;;
69900;SDS011;57183;50.930;5.406;2022-08-19T02:07:50;34.25;;;30.50;;
69900;SDS011;57183;50.930;5.406;2022-08-19T02:10:17;38.65;;;33.20;;
69900;SDS011;57183;50.930;5.406;2022-08-19T02:12:45;43.97;;;32.92;;
69900;SDS011;57183;50.930;5.406;2022-08-19T02:15:12;38.65;;;32.53;;
69900;SDS011;57183;50.930;5.406;2022-08-19T02:17:39;44.42;;;35.42;;
69900;SDS011;57183;50.930;5.406;2022-08-19T02:22:57;44.63;;;34.35;;
69900;SDS011;57183;50.930;5.406;2022-08-19T02:25:23;49.50;;;37.92;;
69900;SDS011;57183;50.930;5.406;2022-08-19T02:27:49;50.33;;;37.60;;
69900;SDS011;57183;50.930;5.406;2022-08-19T02:30:15;49.05;;;36.25;;
69900;SDS011;57183;50.930;5.406;2022-08-19T02:32:42;50.20;;;37.00;;
69900;SDS011;57183;50.930;5.406;2022-08-19T02:35:08;56.75;;;39.15;;
69900;SDS011;57183;50.930;5.406;2022-08-19T02:37:34;49.38;;;38.45;;
69900;SDS011;57183;50.930;5.406;2022-08-19T02:40:18;49.70;;;36.58;;
69900;SDS011;57183;50.930;5.406;2022-08-19T02:42:44;44.45;;;35.58;;
69900;SDS011;57183;50.930;5.406;2022-08-19T02:45:11;43.58;;;35.10;;
69900;SDS011;57183;50.930;5.406;2022-08-19T02:47:38;48.75;;;35.72;;
69900;SDS011;57183;50.930;5.406;2022-08-19T02:50:04;39.30;;;32.78;;
69900;SDS011;57183;50.930;5.406;2022-08-19T02:52:31;46.05;;;34.17;;
69900;SDS011;57183;50.930;5.406;2022-08-19T02:54:58;40.38;;;31.27;;
69900;SDS011;57183;50.930;5.406;2022-08-19T02:57:25;40.67;;;31.63;;
69900;SDS011;57183;50.930;5.406;2022-08-19T02:59:51;42.83;;;33.58;;
69900;SDS011;57183;50.930;5.406;2022-08-19T03:02:17;37.95;;;30.55;;
69900;SDS011;57183;50.930;5.406;2022-08-19T03:04:42;42.15;;;32.88;;
69900;SDS011;57183;50.930;5.406;2022-08-19T03:07:08;53.08;;;37.08;;
69900;SDS011;57183;50.930;5.406;2022-08-19T03:09:36;45.58;;;32.88;;
69900;SDS011;57183;50.930;5.406;2022-08-19T03:12:03;53.35;;;38.22;;
69900;SDS011;57183;50.930;5.406;2022-08-19T03:14:30;47.92;;;35.15;;
69900;SDS011;57183;50.930;5.406;2022-08-19T03:16:57;44.03;;;34.63;;
69900;SDS011;57183;50.930;5.406;2022-08-19T03:19:23;48.08;;;35.10;;
69900;SDS011;57183;50.930;5.406;2022-08-19T03:21:49;56.28;;;40.15;;
69900;SDS011;57183;50.930;5.406;2022-08-19T03:24:16;57.08;;;41.15;;
69900;SDS011;57183;50.930;5.406;2022-08-19T03:26:45;61.35;;;40.92;;
69900;SDS011;57183;50.930;5.406;2022-08-19T03:29:13;56.88;;;38.63;;
69900;SDS011;57183;50.930;5.406;2022-08-19T03:31:40;56.92;;;37.88;;
69900;SDS011;57183;50.930;5.406;2022-08-19T03:34:08;61.70;;;39.78;;
69900;SDS011;57183;50.930;5.406;2022-08-19T03:36:36;61.10;;;40.30;;
69900;SDS011;57183;50.930;5.406;2022-08-19T03:39:03;65.10;;;39.20;;
69900;SDS011;57183;50.930;5.406;2022-08-19T03:41:35;53.95;;;36.63;;
69900;SDS011;57183;50.930;5.406;2022-08-19T03:44:02;63.85;;;42.33;;
69900;SDS011;57183;50.930;5.406;2022-08-19T03:46:31;61.45;;;39.30;;
69900;SDS011;57183;50.930;5.406;2022-08-19T03:48:58;54.30;;;37.95;;
69900;SDS011;57183;50.930;5.406;2022-08-19T03:51:29;57.17;;;39.53;;
69900;SDS011;57183;50.930;5.406;2022-08-19T03:53:57;64.82;;;40.97;;
69900;SDS011;57183;50.930;5.406;2022-08-19T03:56:25;61.30;;;38.90;;
69900;SDS011;57183;50.930;5.406;2022-08-19T03:58:51;61.08;;;40.33;;
69900;SDS011;57183;50.930;5.406;2022-08-19T04:01:19;56.00;;;38.42;;
69900;SDS011;57183;50.930;5.406;2022-08-19T04:03:46;56.80;;;38.05;;
69900;SDS011;57183;50.930;5.406;2022-08-19T04:06:23;59.63;;;39.03;;
69900;SDS011;57183;50.930;5.406;2022-08-19T04:09:00;55.40;;;36.03;;
69900;SDS011;57183;50.930;5.406;2022-08-19T04:11:29;50.58;;;35.72;;
69900;SDS011;57183;50.930;5.406;2022-08-19T04:13:58;43.05;;;31.50;;
69900;SDS011;57183;50.930;5.406;2022-08-19T04:16:25;53.90;;;36.42;;
69900;SDS011;57183;50.930;5.406;2022-08-19T04:18:56;58.05;;;37.00;;
69900;SDS011;57183;50.930;5.406;2022-08-19T04:21:25;54.83;;;36.65;;
69900;SDS011;57183;50.930;5.406;2022-08-19T04:23:53;47.90;;;34.40;;
69900;SDS011;57183;50.930;5.406;2022-08-19T04:26:24;48.45;;;34.85;;
69900;SDS011;57183;50.930;5.406;2022-08-19T04:28:52;44.38;;;30.83;;
69900;SDS011;57183;50.930;5.406;2022-08-19T04:31:20;47.00;;;32.88;;
69900;SDS011;57183;50.930;5.406;2022-08-19T04:33:48;44.95;;;30.92;;
69900;SDS011;57183;50.930;5.406;2022-08-19T04:36:32;39.00;;;29.13;;
69900;SDS011;57183;50.930;5.406;2022-08-19T04:39:01;33.67;;;25.40;;
69900;SDS011;57183;50.930;5.406;2022-08-19T04:41:31;37.33;;;26.67;;
69900;SDS011;57183;50.930;5.406;2022-08-19T04:44:15;36.25;;;26.98;;
69900;SDS011;57183;50.930;5.406;2022-08-19T04:46:44;41.10;;;28.30;;
69900;SDS011;57183;50.930;5.406;2022-08-19T04:49:12;39.30;;;26.98;;
69900;SDS011;57183;50.930;5.406;2022-08-19T04:51:40;52.28;;;33.67;;
69900;SDS011;57183;50.930;5.406;2022-08-19T04:54:07;46.15;;;32.97;;
69900;SDS011;57183;50.930;5.406;2022-08-19T04:56:33;37.03;;;25.83;;
69900;SDS011;57183;50.930;5.406;2022-08-19T04:58:59;53.28;;;35.80;;
69900;SDS011;57183;50.930;5.406;2022-08-19T05:01:29;28.48;;;21.70;;
69900;SDS011;57183;50.930;5.406;2022-08-19T05:03:57;39.15;;;26.85;;
69900;SDS011;57183;50.930;5.406;2022-08-19T05:06:24;37.28;;;26.63;;
69900;SDS011;57183;50.930;5.406;2022-08-19T05:08:50;39.72;;;28.13;;
69900;SDS011;57183;50.930;5.406;2022-08-19T05:11:18;50.70;;;32.72;;
69900;SDS011;57183;50.930;5.406;2022-08-19T05:13:47;51.60;;;34.63;;
69900;SDS011;57183;50.930;5.406;2022-08-19T05:16:14;45.70;;;32.40;;
69900;SDS011;57183;50.930;5.406;2022-08-19T05:18:42;41.03;;;29.60;;
69900;SDS011;57183;50.930;5.406;2022-08-19T05:21:27;39.28;;;28.33;;
69900;SDS011;57183;50.930;5.406;2022-08-19T05:24:11;33.47;;;23.37;;
69900;SDS011;57183;50.930;5.406;2022-08-19T05:26:39;43.15;;;28.83;;
69900;SDS011;57183;50.930;5.406;2022-08-19T05:29:13;55.00;;;36.67;;
69900;SDS011;57183;50.930;5.406;2022-08-19T05:31:41;56.58;;;36.67;;
69900;SDS011;57183;50.930;5.406;2022-08-19T05:34:07;54.13;;;35.60;;
69900;SDS011;57183;50.930;5.406;2022-08-19T05:36:44;55.30;;;36.47;;
69900;SDS011;57183;50.930;5.406;2022-08-19T05:39:16;62.85;;;38.05;;
69900;SDS011;57183;50.930;5.406;2022-08-19T05:41:55;63.90;;;41.03;;
69900;SDS011;57183;50.930;5.406;2022-08-19T05:44:27;64.53;;;39.65;;
69900;SDS011;57183;50.930;5.406;2022-08-19T05:46:57;71.72;;;41.95;;
69900;SDS011;57183;50.930;5.406;2022-08-19T05:49:25;65.25;;;39.22;;
69900;SDS011;57183;50.930;5.406;2022-08-19T05:51:52;67.10;;;41.67;;
69900;SDS011;57183;50.930;5.406;2022-08-19T05:54:19;63.97;;;38.72;;
69900;SDS011;57183;50.930;5.406;2022-08-19T05:56:47;68.80;;;42.78;;
69900;SDS011;57183;50.930;5.406;2022-08-19T05:59:14;64.53;;;38.33;;
69900;SDS011;57183;50.930;5.406;2022-08-19T06:01:42;70.82;;;43.05;;
69900;SDS011;57183;50.930;5.406;2022-08-19T06:04:09;73.30;;;43.20;;
69900;SDS011;57183;50.930;5.406;2022-08-19T06:06:34;69.88;;;42.53;;
69900;SDS011;57183;50.930;5.406;2022-08-19T06:09:02;69.55;;;43.33;;
69900;SDS011;57183;50.930;5.406;2022-08-19T06:11:34;69.35;;;42.78;;
69900;SDS011;57183;50.930;5.406;2022-08-19T06:14:09;61.05;;;38.60;;
69900;SDS011;57183;50.930;5.406;2022-08-19T06:16:39;65.85;;;42.55;;
69900;SDS011;57183;50.930;5.406;2022-08-19T06:19:07;68.88;;;39.50;;
69900;SDS011;57183;50.930;5.406;2022-08-19T06:21:38;60.22;;;38.80;;
69900;SDS011;57183;50.930;5.406;2022-08-19T06:24:06;62.78;;;40.90;;
69900;SDS011;57183;50.930;5.406;2022-08-19T06:26:36;56.75;;;36.95;;
69900;SDS011;57183;50.930;5.406;2022-08-19T06:29:07;52.30;;;34.15;;
69900;SDS011;57183;50.930;5.406;2022-08-19T06:31:34;45.35;;;31.67;;
69900;SDS011;57183;50.930;5.406;2022-08-19T06:34:02;45.53;;;31.30;;
69900;SDS011;57183;50.930;5.406;2022-08-19T06:36:30;48.33;;;33.92;;
69900;SDS011;57183;50.930;5.406;2022-08-19T06:39:16;44.75;;;28.40;;
69900;SDS011;57183;50.930;5.406;2022-08-19T06:41:45;45.40;;;31.38;;
69900;SDS011;57183;50.930;5.406;2022-08-19T06:44:13;40.13;;;28.35;;
69900;SDS011;57183;50.930;5.406;2022-08-19T06:46:39;35.85;;;25.77;;
69900;SDS011;57183;50.930;5.406;2022-08-19T06:49:06;34.83;;;24.00;;
69900;SDS011;57183;50.930;5.406;2022-08-19T06:51:34;31.27;;;22.77;;
69900;SDS011;57183;50.930;5.406;2022-08-19T06:54:00;38.90;;;26.25;;
69900;SDS011;57183;50.930;5.406;2022-08-19T06:56:28;35.85;;;25.60;;
69900;SDS011;57183;50.930;5.406;2022-08-19T06:59:09;33.38;;;24.17;;
69900;SDS011;57183;50.930;5.406;2022-08-19T07:01:42;38.80;;;27.23;;
69900;SDS011;57183;50.930;5.406;2022-08-19T07:04:10;37.10;;;25.15;;
69900;SDS011;57183;50.930;5.406;2022-08-19T07:06:36;35.35;;;24.23;;
69900;SDS011;57183;50.930;5.406;2022-08-19T07:09:03;32.72;;;22.45;;
69900;SDS011;57183;50.930;5.406;2022-08-19T07:11:29;29.35;;;20.30;;
69900;SDS011;57183;50.930;5.406;2022-08-19T07:13:57;35.70;;;24.10;;
69900;SDS011;57183;50.930;5.406;2022-08-19T07:16:23;28.00;;;21.67;;
69900;SDS011;57183;50.930;5.406;2022-08-19T07:18:49;36.00;;;24.58;;
69900;SDS011;57183;50.930;5.406;2022-08-19T07:21:19;38.28;;;22.70;;
69900;SDS011;57183;50.930;5.406;2022-08-19T07:23:47;29.13;;;22.15;;
69900;SDS011;57183;50.930;5.406;2022-08-19T07:28:42;31.70;;;18.40;;
69900;SDS011;57183;50.930;5.406;2022-08-19T07:31:13;26.30;;;21.60;;
69900;SDS011;57183;50.930;5.406;2022-08-19T07:33:45;32.35;;;22.10;;
69900;SDS011;57183;50.930;5.406;2022-08-19T07:36:13;32.28;;;21.90;;
69900;SDS011;57183;50.930;5.406;2022-08-19T07:38:42;29.20;;;20.50;;
69900;SDS011;57183;50.930;5.406;2022-08-19T07:41:11;32.83;;;22.55;;
69900;SDS011;57183;50.930;5.406;2022-08-19T07:43:39;30.80;;;21.67;;
69900;SDS011;57183;50.930;5.406;2022-08-19T07:46:05;31.60;;;22.38;;
69900;SDS011;57183;50.930;5.406;2022-08-19T07:48:32;34.55;;;23.35;;
69900;SDS011;57183;50.930;5.406;2022-08-19T07:50:59;26.15;;;20.08;;
69900;SDS011;57183;50.930;5.406;2022-08-19T07:53:27;24.92;;;18.63;;
69900;SDS011;57183;50.930;5.406;2022-08-19T07:55:54;29.52;;;21.52;;
69900;SDS011;57183;50.930;5.406;2022-08-19T07:58:20;28.63;;;20.95;;
69900;SDS011;57183;50.930;5.406;2022-08-19T08:00:47;31.30;;;20.55;;
69900;SDS011;57183;50.930;5.406;2022-08-19T08:03:17;28.27;;;17.95;;
69900;SDS011;57183;50.930;5.406;2022-08-19T08:05:45;26.52;;;16.88;;
69900;SDS011;57183;50.930;5.406;2022-08-19T08:08:29;19.67;;;15.77;;
69900;SDS011;57183;50.930;5.406;2022-08-19T08:11:02;25.92;;;17.63;;
69900;SDS011;57183;50.930;5.406;2022-08-19T08:13:29;23.15;;;17.33;;
69900;SDS011;57183;50.930;5.406;2022-08-19T08:15:55;21.80;;;16.52;;
69900;SDS011;57183;50.930;5.406;2022-08-19T08:18:22;22.42;;;16.38;;
69900;SDS011;57183;50.930;5.406;2022-08-19T08:20:48;26.63;;;16.05;;
69900;SDS011;57183;50.930;5.406;2022-08-19T08:23:14;24.55;;;15.73;;
69900;SDS011;57183;50.930;5.406;2022-08-19T08:25:54;18.13;;;14.15;;
69900;SDS011;57183;50.930;5.406;2022-08-19T08:28:21;18.08;;;14.13;;
69900;SDS011;57183;50.930;5.406;2022-08-19T08:30:48;19.85;;;15.38;;
69900;SDS011;57183;50.930;5.406;2022-08-19T08:33:18;18.75;;;13.82;;
69900;SDS011;57183;50.930;5.406;2022-08-19T08:35:46;20.38;;;15.35;;
69900;SDS011;57183;50.930;5.406;2022-08-19T08:38:13;18.73;;;14.52;;
69900;SDS011;57183;50.930;5.406;2022-08-19T08:45:47;18.15;;;15.05;;
69900;SDS011;57183;50.930;5.406;2022-08-19T08:48:29;20.27;;;13.98;;
69900;SDS011;57183;50.930;5.406;2022-08-19T08:50:58;17.67;;;14.57;;
69900;SDS011;57183;50.930;5.406;2022-08-19T08:53:28;17.35;;;14.18;;
69900;SDS011;57183;50.930;5.406;2022-08-19T08:55:55;17.15;;;14.25;;
69900;SDS011;57183;50.930;5.406;2022-08-19T08:58:26;20.15;;;13.95;;
69900;SDS011;57183;50.930;5.406;2022-08-19T09:03:34;13.10;;;11.27;;
69900;SDS011;57183;50.930;5.406;2022-08-19T09:06:04;15.93;;;12.95;;
69900;SDS011;57183;50.930;5.406;2022-08-19T09:11:31;11.85;;;10.30;;
69900;SDS011;57183;50.930;5.406;2022-08-19T09:14:29;11.85;;;10.65;;
69900;SDS011;57183;50.930;5.406;2022-08-19T09:17:00;18.13;;;12.63;;
69900;SDS011;57183;50.930;5.406;2022-08-19T09:19:28;12.52;;;10.20;;
69900;SDS011;57183;50.930;5.406;2022-08-19T09:21:55;15.98;;;12.30;;
69900;SDS011;57183;50.930;5.406;2022-08-19T09:24:20;15.77;;;11.98;;
69900;SDS011;57183;50.930;5.406;2022-08-19T09:26:46;13.27;;;11.75;;
69900;SDS011;57183;50.930;5.406;2022-08-19T09:29:12;16.42;;;11.65;;
69900;SDS011;57183;50.930;5.406;2022-08-19T09:31:37;14.27;;;12.05;;
69900;SDS011;57183;50.930;5.406;2022-08-19T09:34:03;16.10;;;11.80;;
69900;SDS011;57183;50.930;5.406;2022-08-19T09:36:31;17.13;;;12.70;;
69900;SDS011;57183;50.930;5.406;2022-08-19T09:38:58;16.25;;;12.10;;
69900;SDS011;57183;50.930;5.406;2022-08-19T09:41:25;19.73;;;12.30;;
69900;SDS011;57183;50.930;5.406;2022-08-19T09:43:52;16.40;;;11.57;;
69900;SDS011;57183;50.930;5.406;2022-08-19T09:46:19;11.73;;;10.50;;
69900;SDS011;57183;50.930;5.406;2022-08-19T09:48:48;16.77;;;11.60;;
69900;SDS011;57183;50.930;5.406;2022-08-19T09:51:17;11.88;;;9.85;;
69900;SDS011;57183;50.930;5.406;2022-08-19T09:53:49;14.20;;;10.80;;
69900;SDS011;57183;50.930;5.406;2022-08-19T09:56:18;11.63;;;10.02;;
69900;SDS011;57183;50.930;5.406;2022-08-19T09:58:45;9.32;;;8.13;;
69900;SDS011;57183;50.930;5.406;2022-08-19T10:01:20;10.75;;;7.82;;
69900;SDS011;57183;50.930;5.406;2022-08-19T10:03:52;8.25;;;7.07;;
69900;SDS011;57183;50.930;5.406;2022-08-19T10:06:20;7.13;;;6.43;;
69900;SDS011;57183;50.930;5.406;2022-08-19T10:08:49;10.07;;;6.40;;
69900;SDS011;57183;50.930;5.406;2022-08-19T10:11:16;8.07;;;6.55;;
69900;SDS011;57183;50.930;5.406;2022-08-19T10:13:43;6.55;;;5.65;;
69900;SDS011;57183;50.930;5.406;2022-08-19T10:16:11;6.10;;;5.50;;
69900;SDS011;57183;50.930;5.406;2022-08-19T10:18:47;6.82;;;6.05;;
69900;SDS011;57183;50.930;5.406;2022-08-19T10:23:48;6.13;;;5.00;;
69900;SDS011;57183;50.930;5.406;2022-08-19T10:26:25;7.05;;;4.85;;
69900;SDS011;57183;50.930;5.406;2022-08-19T10:28:53;5.80;;;4.65;;
69900;SDS011;57183;50.930;5.406;2022-08-19T10:31:20;41.28;;;5.88;;
69900;SDS011;57183;50.930;5.406;2022-08-19T10:33:48;14.57;;;5.00;;
69900;SDS011;57183;50.930;5.406;2022-08-19T10:36:16;8.48;;;5.78;;
69900;SDS011;57183;50.930;5.406;2022-08-19T10:38:45;7.53;;;5.72;;
69900;SDS011;57183;50.930;5.406;2022-08-19T10:41:13;8.25;;;4.78;;
69900;SDS011;57183;50.930;5.406;2022-08-19T10:43:42;5.38;;;4.85;;
69900;SDS011;57183;50.930;5.406;2022-08-19T10:46:10;4.63;;;4.18;;
69900;SDS011;57183;50.930;5.406;2022-08-19T10:48:38;6.78;;;4.15;;
69900;SDS011;57183;50.930;5.406;2022-08-19T10:51:04;6.40;;;4.22;;
69900;SDS011;57183;50.930;5.406;2022-08-19T10:53:48;7.82;;;4.70;;
69900;SDS011;57183;50.930;5.406;2022-08-19T10:56:15;5.30;;;4.13;;
69900;SDS011;57183;50.930;5.406;2022-08-19T11:01:28;7.35;;;4.57;;
69900;SDS011;57183;50.930;5.406;2022-08-19T11:03:56;8.32;;;4.93;;
69900;SDS011;57183;50.930;5.406;2022-08-19T11:06:24;5.03;;;4.40;;
69900;SDS011;57183;50.930;5.406;2022-08-19T11:08:51;5.93;;;4.05;;
69900;SDS011;57183;50.930;5.406;2022-08-19T11:11:18;4.25;;;3.83;;
69900;SDS011;57183;50.930;5.406;2022-08-19T11:13:44;4.70;;;4.22;;
69900;SDS011;57183;50.930;5.406;2022-08-19T11:16:15;4.32;;;3.83;;
69900;SDS011;57183;50.930;5.406;2022-08-19T11:18:44;6.25;;;4.15;;
69900;SDS011;57183;50.930;5.406;2022-08-19T11:21:14;7.22;;;4.75;;
69900;SDS011;57183;50.930;5.406;2022-08-19T11:23:44;4.47;;;3.83;;
69900;SDS011;57183;50.930;5.406;2022-08-19T11:26:11;3.90;;;3.55;;
69900;SDS011;57183;50.930;5.406;2022-08-19T11:28:38;7.47;;;3.92;;
69900;SDS011;57183;50.930;5.406;2022-08-19T11:31:04;5.57;;;3.65;;
69900;SDS011;57183;50.930;5.406;2022-08-19T11:33:36;3.75;;;3.45;;
69900;SDS011;57183;50.930;5.406;2022-08-19T11:36:02;7.05;;;4.70;;
69900;SDS011;57183;50.930;5.406;2022-08-19T11:38:28;5.72;;;4.05;;
69900;SDS011;57183;50.930;5.406;2022-08-19T11:40:57;5.13;;;4.20;;
69900;SDS011;57183;50.930;5.406;2022-08-19T11:43:25;4.55;;;3.35;;
69900;SDS011;57183;50.930;5.406;2022-08-19T11:45:52;4.85;;;3.60;;
69900;SDS011;57183;50.930;5.406;2022-08-19T11:48:19;3.70;;;3.40;;
69900;SDS011;57183;50.930;5.406;2022-08-19T11:50:50;6.68;;;4.80;;
69900;SDS011;57183;50.930;5.406;2022-08-19T11:53:18;5.32;;;3.85;;
69900;SDS011;57183;50.930;5.406;2022-08-19T11:55:45;4.10;;;3.67;;
69900;SDS011;57183;50.930;5.406;2022-08-19T11:58:12;5.05;;;3.38;;
69900;SDS011;57183;50.930;5.406;2022-08-19T12:00:39;5.45;;;4.13;;
69900;SDS011;57183;50.930;5.406;2022-08-19T12:03:06;3.88;;;3.58;;
69900;SDS011;57183;50.930;5.406;2022-08-19T12:05:32;6.78;;;3.67;;
69900;SDS011;57183;50.930;5.406;2022-08-19T12:07:58;8.10;;;3.92;;
69900;SDS011;57183;50.930;5.406;2022-08-19T12:10:24;6.25;;;4.32;;
69900;SDS011;57183;50.930;5.406;2022-08-19T12:12:49;4.53;;;4.13;;
69900;SDS011;57183;50.930;5.406;2022-08-19T12:15:15;7.20;;;3.83;;
69900;SDS011;57183;50.930;5.406;2022-08-19T12:17:41;5.18;;;3.47;;
69900;SDS011;57183;50.930;5.406;2022-08-19T12:20:08;4.95;;;3.42;;
69900;SDS011;57183;50.930;5.406;2022-08-19T12:22:38;6.70;;;2.97;;
69900;SDS011;57183;50.930;5.406;2022-08-19T12:25:06;3.90;;;3.55;;
69900;SDS011;57183;50.930;5.406;2022-08-19T12:27:33;4.03;;;3.20;;
69900;SDS011;57183;50.930;5.406;2022-08-19T12:30:00;4.03;;;3.05;;
69900;SDS011;57183;50.930;5.406;2022-08-19T12:32:27;5.65;;;3.53;;
69900;SDS011;57183;50.930;5.406;2022-08-19T12:34:53;4.05;;;3.67;;
69900;SDS011;57183;50.930;5.406;2022-08-19T12:37:19;3.90;;;3.53;;
69900;SDS011;57183;50.930;5.406;2022-08-19T12:39:45;4.07;;;3.40;;
69900;SDS011;57183;50.930;5.406;2022-08-19T12:42:11;4.70;;;3.92;;
69900;SDS011;57183;50.930;5.406;2022-08-19T12:44:39;4.07;;;3.65;;
69900;SDS011;57183;50.930;5.406;2022-08-19T12:47:06;4.63;;;3.65;;
69900;SDS011;57183;50.930;5.406;2022-08-19T12:49:33;4.68;;;3.60;;
69900;SDS011;57183;50.930;5.406;2022-08-19T12:52:02;13.65;;;3.45;;
69900;SDS011;57183;50.930;5.406;2022-08-19T12:54:29;4.93;;;3.42;;
69900;SDS011;57183;50.930;5.406;2022-08-19T12:56:56;4.05;;;3.35;;
69900;SDS011;57183;50.930;5.406;2022-08-19T12:59:22;4.63;;;3.22;;
69900;SDS011;57183;50.930;5.406;2022-08-19T13:01:48;4.03;;;3.42;;
69900;SDS011;57183;50.930;5.406;2022-08-19T13:04:13;5.28;;;3.53;;
69900;SDS011;57183;50.930;5.406;2022-08-19T13:06:40;3.00;;;2.72;;
69900;SDS011;57183;50.930;5.406;2022-08-19T13:09:07;5.55;;;3.25;;
69900;SDS011;57183;50.930;5.406;2022-08-19T13:11:33;3.25;;;2.75;;
69900;SDS011;57183;50.930;5.406;2022-08-19T13:13:59;4.55;;;3.28;;
69900;SDS011;57183;50.930;5.406;2022-08-19T13:16:26;5.47;;;3.97;;
69900;SDS011;57183;50.930;5.406;2022-08-19T13:18:53;4.68;;;3.67;;
69900;SDS011;57183;50.930;5.406;2022-08-19T13:21:22;6.40;;;3.83;;
69900;SDS011;57183;50.930;5.406;2022-08-19T13:23:50;4.85;;;3.42;;
69900;SDS011;57183;50.930;5.406;2022-08-19T13:26:16;6.53;;;3.83;;
69900;SDS011;57183;50.930;5.406;2022-08-19T13:28:42;4.90;;;2.65;;
69900;SDS011;57183;50.930;5.406;2022-08-19T13:31:29;4.72;;;2.60;;
69900;SDS011;57183;50.930;5.406;2022-08-19T13:34:17;6.30;;;2.95;;
69900;SDS011;57183;50.930;5.406;2022-08-19T13:36:45;3.80;;;2.90;;
69900;SDS011;57183;50.930;5.406;2022-08-19T13:39:10;5.32;;;3.03;;
69900;SDS011;57183;50.930;5.406;2022-08-19T13:41:37;4.07;;;2.40;;
69900;SDS011;57183;50.930;5.406;2022-08-19T13:44:07;2.88;;;2.40;;
69900;SDS011;57183;50.930;5.406;2022-08-19T13:46:33;3.97;;;2.40;;
69900;SDS011;57183;50.930;5.406;2022-08-19T13:48:59;4.65;;;2.08;;
69900;SDS011;57183;50.930;5.406;2022-08-19T13:51:25;2.70;;;1.95;;
69900;SDS011;57183;50.930;5.406;2022-08-19T13:53:50;2.92;;;1.67;;
69900;SDS011;57183;50.930;5.406;2022-08-19T13:56:17;2.38;;;1.98;;
69900;SDS011;57183;50.930;5.406;2022-08-19T13:58:44;3.13;;;2.40;;
69900;SDS011;57183;50.930;5.406;2022-08-19T14:01:11;3.95;;;1.75;;
69900;SDS011;57183;50.930;5.406;2022-08-19T14:03:37;5.25;;;2.08;;
69900;SDS011;57183;50.930;5.406;2022-08-19T14:06:03;2.67;;;2.10;;
69900;SDS011;57183;50.930;5.406;2022-08-19T14:08:29;2.50;;;1.52;;
69900;SDS011;57183;50.930;5.406;2022-08-19T14:10:57;2.80;;;1.70;;
69900;SDS011;57183;50.930;5.406;2022-08-19T14:13:23;2.38;;;2.00;;
69900;SDS011;57183;50.930;5.406;2022-08-19T14:15:49;3.13;;;1.52;;
69900;SDS011;57183;50.930;5.406;2022-08-19T14:18:16;2.63;;;1.50;;
69900;SDS011;57183;50.930;5.406;2022-08-19T14:20:42;2.20;;;1.80;;
69900;SDS011;57183;50.930;5.406;2022-08-19T14:23:09;2.63;;;1.90;;
69900;SDS011;57183;50.930;5.406;2022-08-19T14:25:34;1.88;;;1.77;;
69900;SDS011;57183;50.930;5.406;2022-08-19T14:28:00;4.30;;;1.67;;
69900;SDS011;57183;50.930;5.406;2022-08-19T14:30:27;2.33;;;2.05;;
69900;SDS011;57183;50.930;5.406;2022-08-19T14:32:58;3.00;;;1.98;;
69900;SDS011;57183;50.930;5.406;2022-08-19T14:35:26;4.35;;;2.03;;
69900;SDS011;57183;50.930;5.406;2022-08-19T14:37:53;2.17;;;1.67;;
69900;SDS011;57183;50.930;5.406;2022-08-19T14:40:20;2.28;;;1.90;;
69900;SDS011;57183;50.930;5.406;2022-08-19T14:42:51;2.40;;;2.00;;
69900;SDS011;57183;50.930;5.406;2022-08-19T14:45:29;2.38;;;2.17;;
69900;SDS011;57183;50.930;5.406;2022-08-19T14:47:56;2.50;;;2.10;;
69900;SDS011;57183;50.930;5.406;2022-08-19T14:50:24;3.97;;;1.83;;
69900;SDS011;57183;50.930;5.406;2022-08-19T14:52:56;4.63;;;1.80;;
69900;SDS011;57183;50.930;5.406;2022-08-19T14:55:23;2.13;;;1.95;;
69900;SDS011;57183;50.930;5.406;2022-08-19T14:57:49;7.30;;;1.98;;
69900;SDS011;57183;50.930;5.406;2022-08-19T15:00:15;4.30;;;1.60;;
69900;SDS011;57183;50.930;5.406;2022-08-19T15:02:41;2.17;;;1.90;;
69900;SDS011;57183;50.930;5.406;2022-08-19T15:05:09;2.25;;;1.75;;
69900;SDS011;57183;50.930;5.406;2022-08-19T15:07:35;3.03;;;1.77;;
69900;SDS011;57183;50.930;5.406;2022-08-19T15:10:01;1.88;;;1.77;;